Time;durP1;ratioP1;P1;durP2;ratioP2;P2;SDS_P1;SDS_P2;PMS_P1;PMS_P2;Temp;Humidity;BMP_temperature;BMP_pressure;BME280_temperature;BME280_humidity;BME280_pressure;Samples;Min_cycle;Max_cycle;Signal;HPM_P1;HPM_P2
2021/05/02 00:00:46;;;;;;;1.35;1.10;;;20.80;48.10;;;;;;6244383;28;20038;-77
2021/05/02 00:03:47;;;;;;;1.55;1.15;;;20.80;48.20;;;;;;6244346;28;20060;-77
2021/05/02 00:06:48;;;;;;;1.17;1.00;;;20.80;48.20;;;;;;6245322;28;20404;-77
2021/05/02 00:09:48;;;;;;;1.70;1.10;;;20.80;48.10;;;;;;6249082;28;20029;-77
2021/05/02 00:12:49;;;;;;;1.00;0.90;;;20.90;48.20;;;;;;6249009;28;20523;-77
2021/05/02 00:15:50;;;;;;;2.45;1.40;;;20.80;48.10;;;;;;6248752;28;20022;-77
2021/05/02 00:18:51;;;;;;;1.45;1.20;;;20.80;48.20;;;;;;6248517;28;20029;-77
2021/05/02 00:21:53;;;;;;;1.25;1.08;;;20.90;48.20;;;;;;6246568;28;20083;-77
2021/05/02 00:24:53;;;;;;;1.63;1.38;;;20.80;48.20;;;;;;6246756;28;20510;-76
2021/05/02 00:27:54;;;;;;;1.27;0.98;;;20.80;48.20;;;;;;6247400;28;20021;-76
2021/05/02 00:30:56;;;;;;;1.63;1.10;;;20.80;48.10;;;;;;6247660;28;20033;-77
2021/05/02 00:33:57;;;;;;;2.13;1.20;;;20.80;48.10;;;;;;6248851;28;20095;-76
2021/05/02 00:36:57;;;;;;;1.30;1.10;;;20.80;48.10;;;;;;6248330;28;20021;-76
2021/05/02 00:39:58;;;;;;;1.20;1.05;;;20.80;48.20;;;;;;6248647;28;20029;-76
2021/05/02 00:43:07;;;;;;;1.23;1.10;;;20.80;48.10;;;;;;6248553;28;20029;-77
2021/05/02 00:46:16;;;;;;;1.60;1.20;;;20.80;48.10;;;;;;6245280;28;20029;-77
2021/05/02 00:49:28;;;;;;;2.22;1.20;;;20.80;48.20;;;;;;6248341;28;20028;-76
2021/05/02 00:52:38;;;;;;;1.33;1.00;;;20.80;48.10;;;;;;6248487;28;20025;-75
2021/05/02 00:55:47;;;;;;;1.67;1.20;;;20.80;48.10;;;;;;6248550;28;20152;-76
2021/05/02 00:59:11;;;;;;;1.45;1.10;;;20.80;48.20;;;;;;6248085;28;20017;-76
2021/05/02 01:02:13;;;;;;;1.63;1.20;;;20.80;48.10;;;;;;6247338;28;20366;-76
2021/05/02 01:05:14;;;;;;;1.73;1.10;;;20.80;48.20;;;;;;6248887;28;20064;-76
2021/05/02 01:08:15;;;;;;;1.90;1.20;;;20.80;48.20;;;;;;6248114;28;20388;-77
2021/05/02 01:11:16;;;;;;;1.35;1.15;;;20.80;48.20;;;;;;6248045;28;20029;-76
2021/05/02 01:14:22;;;;;;;1.45;1.27;;;20.80;48.10;;;;;;6247784;28;20155;-77
2021/05/02 01:17:24;;;;;;;1.63;1.15;;;20.80;48.20;;;;;;6247228;28;20100;-76
2021/05/02 01:20:26;;;;;;;1.23;1.02;;;20.80;48.10;;;;;;6246609;28;20315;-76
2021/05/02 01:23:29;;;;;;;1.30;1.20;;;20.80;48.10;;;;;;6245538;28;20396;-77
2021/05/02 01:26:29;;;;;;;1.65;1.35;;;20.80;48.10;;;;;;6247244;28;20060;-76
2021/05/02 01:29:30;;;;;;;1.60;1.23;;;20.80;48.20;;;;;;6247590;28;20021;-76
2021/05/02 01:32:31;;;;;;;1.35;1.17;;;20.80;48.10;;;;;;6247273;28;20021;-76
2021/05/02 01:35:32;;;;;;;2.10;1.40;;;20.80;48.20;;;;;;6247399;28;20049;-76
2021/05/02 01:38:33;;;;;;;1.77;1.50;;;20.80;48.10;;;;;;6247145;28;20026;-76
2021/05/02 01:41:34;;;;;;;1.73;1.13;;;20.80;48.20;;;;;;6246907;28;20041;-77
2021/05/02 01:44:35;;;;;;;1.83;1.40;;;20.80;48.20;;;;;;6246787;28;20025;-76
2021/05/02 01:47:42;;;;;;;1.48;1.17;;;20.80;48.20;;;;;;6246904;28;20022;-76
2021/05/02 01:50:46;;;;;;;1.92;1.30;;;20.80;48.20;;;;;;6246846;28;20049;-76
2021/05/02 01:53:47;;;;;;;1.63;1.23;;;20.80;48.10;;;;;;6246245;28;20044;-77
2021/05/02 01:56:48;;;;;;;3.05;1.27;;;20.80;48.20;;;;;;6246807;28;20026;-76
2021/05/02 01:59:53;;;;;;;1.90;1.20;;;20.80;48.10;;;;;;6246263;28;20033;-77
2021/05/02 02:02:57;;;;;;;1.40;1.17;;;20.80;48.20;;;;;;6245945;28;20124;-76
2021/05/02 02:05:58;;;;;;;1.27;1.10;;;20.80;48.10;;;;;;6245835;28;20080;-77
2021/05/02 02:09:04;;;;;;;1.38;1.13;;;20.80;48.10;;;;;;6246605;28;20234;-77
2021/05/02 02:12:06;;;;;;;1.45;1.20;;;20.80;48.10;;;;;;6245505;28;20116;-75
2021/05/02 02:15:07;;;;;;;2.20;1.42;;;20.80;48.10;;;;;;6245064;28;20409;-76
2021/05/02 02:18:10;;;;;;;2.13;1.27;;;20.80;48.20;;;;;;6245815;28;20041;-76
2021/05/02 02:21:13;;;;;;;1.75;1.13;;;20.80;48.10;;;;;;6245867;28;20037;-77
2021/05/02 02:24:15;;;;;;;1.73;1.40;;;20.80;48.10;;;;;;6245818;28;20029;-77
2021/05/02 02:27:16;;;;;;;1.95;1.48;;;20.80;48.10;;;;;;6245706;28;20026;-77
2021/05/02 02:30:19;;;;;;;2.00;1.42;;;20.80;48.10;;;;;;6244977;28;20075;-76
2021/05/02 02:33:24;;;;;;;1.92;1.40;;;20.80;48.10;;;;;;6245341;28;20025;-76
2021/05/02 02:36:24;;;;;;;1.33;1.13;;;20.80;48.10;;;;;;6245331;28;20086;-75
2021/05/02 02:39:25;;;;;;;1.40;1.15;;;20.80;48.10;;;;;;6245224;28;20025;-76
2021/05/02 02:42:27;;;;;;;1.83;1.38;;;20.80;48.20;;;;;;6245633;28;20037;-76
2021/05/02 02:45:33;;;;;;;1.85;1.27;;;20.80;48.10;;;;;;6245019;28;20545;-77
2021/05/02 02:48:34;;;;;;;1.77;1.20;;;20.80;48.10;;;;;;6245165;28;20112;-76
2021/05/02 02:51:37;;;;;;;2.08;1.25;;;20.80;48.20;;;;;;6245606;28;20363;-75
2021/05/02 02:54:38;;;;;;;1.67;1.38;;;20.80;48.10;;;;;;6245415;28;20442;-76
2021/05/02 02:57:51;;;;;;;1.95;1.60;;;20.80;48.20;;;;;;6245609;28;20018;-76
2021/05/02 03:00:52;;;;;;;1.55;1.27;;;20.80;48.10;;;;;;6243602;28;20029;-76
2021/05/02 03:03:56;;;;;;;1.52;1.20;;;20.80;48.60;;;;;;6245519;28;20100;-77
2021/05/02 03:06:59;;;;;;;1.48;1.38;;;20.80;48.10;;;;;;6244970;28;20112;-76
2021/05/02 03:10:01;;;;;;;1.65;1.23;;;20.80;48.10;;;;;;6245589;28;20040;-76
2021/05/02 03:13:02;;;;;;;1.42;1.30;;;20.80;48.10;;;;;;6244780;28;20039;-77
2021/05/02 03:16:04;;;;;;;1.95;1.63;;;20.80;48.10;;;;;;6244884;28;20052;-77
2021/05/02 03:19:12;;;;;;;2.30;1.40;;;20.80;48.10;;;;;;6240816;28;20114;-75
2021/05/02 03:22:18;;;;;;;1.70;1.40;;;20.80;48.10;;;;;;6244937;28;20029;-77
2021/05/02 03:25:23;;;;;;;2.00;1.40;;;20.80;48.10;;;;;;6244391;28;20033;-77
2021/05/02 03:28:52;;;;;;;1.80;1.42;;;20.80;48.10;;;;;;6245820;28;20419;-77
2021/05/02 03:31:54;;;;;;;1.50;1.17;;;20.80;48.10;;;;;;6237512;28;20044;-75
2021/05/02 03:34:56;;;;;;;1.67;1.50;;;20.80;48.10;;;;;;6245615;28;20050;-77
2021/05/02 03:38:22;;;;;;;1.42;1.27;;;20.80;48.10;;;;;;6245576;28;20047;-76
2021/05/02 03:41:22;;;;;;;1.85;1.55;;;20.80;48.10;;;;;;6227667;28;20081;-77
2021/05/02 03:44:23;;;;;;;1.83;1.48;;;20.80;48.80;;;;;;6250682;28;20034;-77
2021/05/02 03:47:23;;;;;;;2.10;1.52;;;20.80;48.10;;;;;;6250612;28;20054;-77
2021/05/02 03:50:24;;;;;;;2.20;1.60;;;20.80;48.10;;;;;;6249635;28;20529;-76
2021/05/02 03:53:24;;;;;;;1.40;1.20;;;20.80;48.10;;;;;;6249770;28;20100;-76
2021/05/02 03:56:52;;;;;;;1.70;1.42;;;20.80;48.10;;;;;;6249160;28;20388;-77
2021/05/02 04:00:42;;;;;;;2.55;1.75;;;20.80;48.10;;;;;;6247324;28;20041;-77
2021/05/02 04:03:43;;;;;;;1.98;1.60;;;20.80;48.10;;;;;;6249579;28;20033;-77
2021/05/02 04:06:44;;;;;;;1.92;1.48;;;20.80;48.10;;;;;;6249321;28;20095;-77
2021/05/02 04:09:46;;;;;;;2.83;1.40;;;20.80;48.10;;;;;;6249314;28;20022;-77
2021/05/02 04:12:46;;;;;;;1.65;1.40;;;20.80;48.10;;;;;;6249068;28;20030;-76
2021/05/02 04:15:47;;;;;;;1.70;1.48;;;20.80;48.10;;;;;;6248850;28;20025;-76
2021/05/02 04:18:47;;;;;;;2.35;1.60;;;20.80;48.10;;;;;;6249049;28;20033;-76
2021/05/02 04:21:48;;;;;;;2.10;1.40;;;20.80;48.10;;;;;;6248460;28;20124;-77
2021/05/02 04:24:48;;;;;;;1.88;1.50;;;20.80;48.10;;;;;;6249244;28;20487;-77
2021/05/02 04:27:49;;;;;;;2.38;1.70;;;20.80;48.10;;;;;;6248474;28;20040;-77
2021/05/02 04:30:49;;;;;;;2.33;1.70;;;20.80;48.10;;;;;;6249126;28;20387;-76
2021/05/02 04:33:50;;;;;;;1.83;1.58;;;20.80;48.10;;;;;;6248647;28;20065;-77
2021/05/02 04:36:52;;;;;;;1.95;1.35;;;20.80;48.10;;;;;;6248147;28;20030;-77
2021/05/02 04:39:53;;;;;;;1.52;1.42;;;20.80;48.00;;;;;;6246675;28;20056;-76
2021/05/02 04:42:53;;;;;;;2.20;1.80;;;20.80;48.10;;;;;;6247825;28;20125;-77
2021/05/02 04:45:54;;;;;;;1.98;1.40;;;20.80;48.10;;;;;;6247932;28;20029;-77
2021/05/02 04:48:54;;;;;;;1.95;1.50;;;20.80;48.10;;;;;;6247859;28;20037;-77
2021/05/02 04:51:55;;;;;;;2.38;1.67;;;20.80;48.10;;;;;;6246505;28;20112;-77
2021/05/02 04:54:55;;;;;;;2.67;1.58;;;20.80;48.10;;;;;;6247109;28;20029;-77
2021/05/02 04:58:01;;;;;;;1.67;1.38;;;20.80;48.10;;;;;;6247823;28;20029;-77
2021/05/02 05:01:03;;;;;;;2.00;1.60;;;20.80;48.10;;;;;;6245875;28;20442;-75
2021/05/02 05:04:05;;;;;;;1.70;1.60;;;20.80;48.10;;;;;;6248539;28;20026;-76
2021/05/02 05:07:06;;;;;;;1.65;1.50;;;20.80;48.10;;;;;;6246706;28;20506;-76
2021/05/02 05:10:07;;;;;;;1.67;1.45;;;20.80;48.10;;;;;;6247972;28;20029;-76
2021/05/02 05:13:09;;;;;;;2.22;1.52;;;20.80;48.00;;;;;;6248194;28;20030;-77
2021/05/02 05:16:10;;;;;;;2.45;1.70;;;20.80;48.10;;;;;;6247806;28;20034;-76
2021/05/02 05:19:10;;;;;;;1.75;1.40;;;20.80;48.10;;;;;;6247646;28;20025;-76
2021/05/02 05:22:11;;;;;;;1.92;1.55;;;20.80;48.10;;;;;;6247870;28;20071;-76
2021/05/02 05:25:12;;;;;;;3.63;1.92;;;20.80;48.10;;;;;;6247420;28;20079;-76
2021/05/02 05:28:13;;;;;;;1.58;1.40;;;20.80;48.00;;;;;;6247715;28;20028;-74
2021/05/02 05:31:13;;;;;;;1.83;1.50;;;20.80;48.00;;;;;;6247103;28;20372;-75
2021/05/02 05:34:14;;;;;;;1.85;1.38;;;20.80;48.00;;;;;;6246467;28;20058;-77
2021/05/02 05:37:14;;;;;;;2.72;1.73;;;20.80;48.00;;;;;;6246601;28;20314;-76
2021/05/02 05:40:15;;;;;;;2.00;1.50;;;20.80;48.10;;;;;;6247438;28;20040;-76
2021/05/02 05:43:16;;;;;;;1.77;1.30;;;20.80;48.10;;;;;;6247200;28;20029;-76
2021/05/02 05:46:16;;;;;;;2.22;1.58;;;20.80;48.00;;;;;;6246684;28;20024;-77
2021/05/02 05:49:19;;;;;;;1.85;1.60;;;20.80;48.00;;;;;;6246342;28;20103;-76
2021/05/02 05:52:20;;;;;;;1.83;1.40;;;20.80;48.10;;;;;;6246657;28;20025;-76
2021/05/02 05:55:22;;;;;;;1.63;1.35;;;20.80;48.00;;;;;;6246433;28;20064;-77
2021/05/02 05:58:23;;;;;;;2.03;1.58;;;20.80;48.10;;;;;;6244385;28;20034;-76
2021/05/02 06:01:24;;;;;;;1.65;1.42;;;20.80;48.10;;;;;;6246174;28;20373;-77
2021/05/02 06:04:24;;;;;;;2.13;1.73;;;20.80;48.10;;;;;;6246220;28;20088;-76
2021/05/02 06:07:25;;;;;;;4.45;1.50;;;20.80;48.00;;;;;;6244899;28;20021;-76
2021/05/02 06:10:26;;;;;;;2.42;1.70;;;20.80;48.00;;;;;;6245703;28;20030;-76
2021/05/02 06:13:27;;;;;;;2.13;1.50;;;20.80;48.00;;;;;;6245860;28;20028;-76
2021/05/02 06:16:27;;;;;;;2.00;1.40;;;20.80;48.00;;;;;;6246060;28;20017;-76
2021/05/02 06:19:28;;;;;;;1.55;1.30;;;20.80;48.00;;;;;;6245702;28;20119;-76
2021/05/02 06:22:28;;;;;;;2.20;1.65;;;20.80;48.10;;;;;;6245576;28;20026;-76
2021/05/02 06:25:29;;;;;;;1.58;1.42;;;20.80;48.00;;;;;;6245895;28;20402;-76
2021/05/02 06:28:30;;;;;;;1.85;1.30;;;20.80;47.90;;;;;;6245611;28;20026;-76
2021/05/02 06:31:30;;;;;;;2.15;1.70;;;20.80;48.00;;;;;;6243992;28;20079;-77
2021/05/02 06:34:31;;;;;;;2.20;1.60;;;20.80;48.00;;;;;;6245149;28;20061;-77
2021/05/02 06:37:32;;;;;;;2.58;1.63;;;20.80;48.00;;;;;;6245743;28;20388;-77
2021/05/02 06:40:33;;;;;;;1.75;1.38;;;20.80;48.00;;;;;;6243682;28;20095;-76
2021/05/02 06:43:33;;;;;;;2.65;1.70;;;20.80;48.00;;;;;;6245525;28;20022;-77
2021/05/02 06:46:34;;;;;;;2.13;1.40;;;20.80;48.00;;;;;;6245440;28;20026;-76
2021/05/02 06:49:35;;;;;;;2.67;1.70;;;20.80;48.00;;;;;;6245157;28;20054;-77
2021/05/02 06:52:35;;;;;;;1.92;1.38;;;20.80;48.00;;;;;;6245642;28;20392;-76
2021/05/02 06:55:36;;;;;;;1.55;1.20;;;20.80;48.00;;;;;;6245304;28;20028;-76
2021/05/02 06:58:36;;;;;;;2.38;1.70;;;20.80;48.00;;;;;;6245491;28;20056;-77
2021/05/02 07:01:37;;;;;;;2.15;1.30;;;20.80;47.90;;;;;;6245421;28;20041;-77
2021/05/02 07:04:37;;;;;;;1.45;1.30;;;20.80;48.00;;;;;;6244970;28;20026;-76
2021/05/02 07:07:38;;;;;;;2.85;1.52;;;20.80;48.00;;;;;;6245260;28;20021;-77
2021/05/02 07:10:38;;;;;;;1.55;1.40;;;20.80;48.00;;;;;;6243987;28;20021;-77
2021/05/02 07:13:39;;;;;;;3.20;1.42;;;20.80;48.00;;;;;;6245861;28;20039;-77
2021/05/02 07:16:39;;;;;;;2.22;1.50;;;20.80;48.00;;;;;;6244682;28;20030;-77
2021/05/02 07:19:40;;;;;;;1.50;1.40;;;20.80;48.00;;;;;;6245099;28;20492;-77
2021/05/02 07:22:43;;;;;;;1.42;1.13;;;20.80;48.00;;;;;;6245157;28;20088;-77
2021/05/02 07:25:44;;;;;;;1.50;1.40;;;20.80;48.00;;;;;;6244646;28;20029;-77
2021/05/02 07:28:44;;;;;;;1.67;1.40;;;20.80;48.00;;;;;;6243787;28;20033;-77
2021/05/02 07:31:45;;;;;;;1.63;1.45;;;20.80;47.90;;;;;;6244485;28;20311;-77
2021/05/02 07:34:45;;;;;;;2.10;1.45;;;20.70;47.90;;;;;;6244775;28;20053;-77
2021/05/02 07:37:46;;;;;;;1.80;1.38;;;20.80;47.90;;;;;;6245250;28;20510;-76
2021/05/02 07:40:46;;;;;;;1.92;1.60;;;20.80;48.00;;;;;;6244438;28;20092;-76
2021/05/02 07:43:47;;;;;;;1.73;1.42;;;20.80;48.00;;;;;;6245179;28;20080;-77
2021/05/02 07:46:48;;;;;;;1.83;1.35;;;20.80;48.00;;;;;;6245251;28;20032;-77
2021/05/02 07:49:49;;;;;;;1.42;1.30;;;20.80;47.90;;;;;;6245025;28;20033;-77
2021/05/02 07:52:50;;;;;;;1.50;1.25;;;20.80;48.00;;;;;;6242996;28;20388;-77
2021/05/02 07:55:50;;;;;;;2.08;1.40;;;20.80;47.90;;;;;;6242976;28;20033;-77
2021/05/02 07:58:51;;;;;;;1.38;1.15;;;20.70;47.90;;;;;;6244751;28;20032;-77
2021/05/02 08:01:51;;;;;;;1.75;1.40;;;20.70;47.90;;;;;;6244305;28;20046;-76
2021/05/02 08:04:52;;;;;;;1.92;1.30;;;20.80;48.00;;;;;;6244722;28;20037;-77
2021/05/02 08:07:52;;;;;;;1.67;1.58;;;20.80;48.00;;;;;;6243503;28;20040;-77
2021/05/02 08:10:53;;;;;;;2.10;1.70;;;20.80;48.00;;;;;;6244953;28;20056;-77
2021/05/02 08:13:53;;;;;;;1.95;1.50;;;20.80;48.00;;;;;;6245567;28;20704;-77
2021/05/02 08:16:54;;;;;;;1.80;1.42;;;20.80;48.10;;;;;;6245018;28;20392;-77
2021/05/02 08:19:55;;;;;;;1.52;1.20;;;20.70;48.00;;;;;;6245584;28;20056;-77
2021/05/02 08:22:55;;;;;;;2.33;1.48;;;20.80;48.10;;;;;;6245185;28;20443;-77
2021/05/02 08:25:56;;;;;;;1.50;1.25;;;20.80;48.00;;;;;;6245576;28;20029;-76
2021/05/02 08:28:57;;;;;;;2.03;1.30;;;20.80;48.10;;;;;;6246799;28;20017;-77
2021/05/02 08:31:57;;;;;;;1.70;1.50;;;20.80;48.00;;;;;;6248484;28;20021;-77
2021/05/02 08:34:58;;;;;;;1.40;1.30;;;20.80;48.00;;;;;;6249794;28;20057;-77
2021/05/02 08:38:00;;;;;;;1.90;1.50;;;20.80;47.90;;;;;;6249559;28;20120;-77
2021/05/02 08:41:01;;;;;;;1.58;1.35;;;20.80;48.00;;;;;;6249188;28;20037;-77
2021/05/02 08:44:03;;;;;;;2.10;1.33;;;20.80;48.00;;;;;;6248954;28;20018;-77
2021/05/02 08:47:05;;;;;;;1.60;1.30;;;20.80;47.90;;;;;;6248988;28;20052;-77
2021/05/02 08:50:10;;;;;;;1.42;1.20;;;20.80;48.00;;;;;;6249063;28;20057;-75
2021/05/02 08:53:11;;;;;;;1.65;1.35;;;20.80;48.00;;;;;;6248627;28;20107;-76
2021/05/02 08:56:11;;;;;;;1.70;1.30;;;20.80;48.00;;;;;;6247856;28;20472;-76
2021/05/02 08:59:13;;;;;;;2.25;1.38;;;20.80;47.90;;;;;;6249188;28;20031;-77
2021/05/02 09:02:24;;;;;;;3.75;1.50;;;20.80;48.00;;;;;;6248920;28;20128;-76
2021/05/02 09:05:25;;;;;;;1.73;1.33;;;20.80;48.00;;;;;;6249455;28;20025;-76
2021/05/02 09:08:31;;;;;;;1.70;1.25;;;20.80;48.00;;;;;;6248943;28;20057;-77
2021/05/02 09:11:38;;;;;;;1.77;1.50;;;20.80;48.00;;;;;;6248770;28;20023;-76
2021/05/02 09:14:40;;;;;;;1.30;1.20;;;20.80;47.90;;;;;;6248780;28;20094;-76
2021/05/02 09:21:03;;;;;;;1.73;1.10;;;20.80;48.00;;;;;;6248699;28;20108;-77
2021/05/02 09:24:07;;;;;;;1.80;1.48;;;20.80;48.00;;;;;;6248431;28;20025;-77
2021/05/02 09:27:13;;;;;;;1.77;1.38;;;20.80;48.00;;;;;;6248804;28;20025;-77
2021/05/02 09:30:15;;;;;;;1.90;1.40;;;20.80;48.00;;;;;;6248603;28;20026;-77
2021/05/02 09:33:26;;;;;;;1.98;1.33;;;20.80;48.00;;;;;;6248415;28;20021;-76
2021/05/02 09:36:27;;;;;;;2.28;1.50;;;20.80;48.00;;;;;;6248239;28;20037;-76
2021/05/02 09:39:50;;;;;;;2.10;1.58;;;20.80;48.00;;;;;;6248643;28;20029;-77
2021/05/02 09:42:51;;;;;;;2.00;1.40;;;20.80;48.10;;;;;;6247830;28;20044;-77
2021/05/02 09:49:27;;;;;;;2.35;1.35;;;20.80;48.10;;;;;;6248209;28;20498;-76
2021/05/02 09:52:52;;;;;;;1.40;1.30;;;20.80;48.10;;;;;;6247316;28;20534;-77
2021/05/02 09:55:52;;;;;;;1.92;1.50;;;20.80;48.10;;;;;;6242366;28;20025;-76
2021/05/02 09:58:53;;;;;;;2.58;1.50;;;20.80;48.10;;;;;;6237653;28;20453;-76
2021/05/02 10:02:12;;;;;;;2.28;1.42;;;20.80;48.10;;;;;;6243387;28;20075;-76
2021/05/02 10:05:12;;;;;;;1.77;1.42;;;20.80;48.10;;;;;;6244124;28;20037;-76
2021/05/02 10:08:13;;;;;;;2.10;1.42;;;20.80;48.20;;;;;;6244728;28;20036;-76
2021/05/02 10:11:14;;;;;;;1.60;1.20;;;20.80;48.10;;;;;;6244983;28;20025;-76
2021/05/02 10:14:14;;;;;;;1.23;1.10;;;20.80;48.10;;;;;;6244031;28;20021;-77
2021/05/02 10:17:15;;;;;;;13.02;1.48;;;20.80;48.20;;;;;;6244219;28;20511;-76
2021/05/02 10:20:16;;;;;;;1.92;1.30;;;20.80;48.20;;;;;;6242374;28;20057;-76
2021/05/02 10:23:18;;;;;;;1.85;1.40;;;20.80;48.20;;;;;;6252281;28;20388;-76
2021/05/02 10:26:18;;;;;;;1.65;1.40;;;20.80;48.20;;;;;;6243371;28;20025;-77
2021/05/02 10:29:23;;;;;;;1.30;1.08;;;20.80;48.20;;;;;;6243515;28;20021;-76
2021/05/02 10:32:34;;;;;;;1.50;1.40;;;20.80;48.20;;;;;;6240489;28;20357;-76
2021/05/02 10:35:55;;;;;;;1.23;1.13;;;20.80;48.20;;;;;;6243153;28;20052;-77
2021/05/02 10:38:57;;;;;;;1.50;1.38;;;20.80;48.60;;;;;;6236509;28;20035;-76
2021/05/02 10:41:58;;;;;;;1.75;1.13;;;20.80;48.30;;;;;;6244341;28;20041;-76
2021/05/02 10:44:58;;;;;;;1.52;1.23;;;20.80;48.20;;;;;;6244579;28;20727;-76
2021/05/02 10:48:01;;;;;;;1.92;1.33;;;20.80;48.30;;;;;;6243833;28;20099;-77
2021/05/02 10:51:03;;;;;;;1.63;1.00;;;20.80;48.20;;;;;;6243911;28;20348;-76
2021/05/02 10:54:09;;;;;;;1.38;1.13;;;20.80;48.20;;;;;;6241497;28;20472;-76
2021/05/02 10:57:32;;;;;;;2.17;1.23;;;20.80;48.30;;;;;;6244229;28;20380;-76
2021/05/02 11:00:49;;;;;;;1.60;1.30;;;20.80;48.30;;;;;;6244889;28;20026;-77
2021/05/02 11:03:52;;;;;;;4.57;1.40;;;20.80;48.20;;;;;;6242446;28;20404;-75
2021/05/02 11:06:54;;;;;;;2.08;1.20;;;20.80;48.20;;;;;;6244331;28;20029;-76
2021/05/02 11:09:55;;;;;;;1.48;1.27;;;20.80;48.20;;;;;;6243860;28;20071;-75
2021/05/02 11:12:55;;;;;;;1.98;1.42;;;20.80;48.20;;;;;;6243133;28;20033;-76
2021/05/02 11:16:25;;;;;;;1.10;1.00;;;20.80;48.20;;;;;;6244614;28;20025;-75
2021/05/02 11:19:30;;;;;;;1.58;1.20;;;20.80;48.20;;;;;;6241759;28;20107;-76
2021/05/02 11:22:44;;;;;;;;;;;20.80;48.20;;;;;;6244479;28;20053;-77
2021/05/02 11:25:56;;;;;;;1.50;1.15;;;20.80;48.20;;;;;;6237829;28;19952;-77
2021/05/02 11:29:07;;;;;;;1.40;1.20;;;20.80;48.20;;;;;;6234138;28;20056;-75
2021/05/02 11:32:08;;;;;;;2.15;1.20;;;20.80;48.20;;;;;;6244803;28;20036;-77
2021/05/02 11:35:20;;;;;;;2.28;1.33;;;20.80;48.20;;;;;;6243779;28;20050;-76
2021/05/02 11:38:22;;;;;;;1.42;1.10;;;20.80;48.20;;;;;;6239921;28;20025;-76
2021/05/02 11:41:23;;;;;;;2.92;1.60;;;20.80;48.20;;;;;;6242807;28;20033;-75
2021/05/02 11:44:23;;;;;;;7.03;1.40;;;20.80;48.20;;;;;;6241892;28;20330;-76
2021/05/02 11:47:32;;;;;;;1.67;1.15;;;20.90;48.20;;;;;;6240283;28;20080;-76
2021/05/02 11:50:40;;;;;;;1.95;1.20;;;20.90;48.20;;;;;;6237915;28;20036;-76
2021/05/02 11:53:50;;;;;;;3.67;1.50;;;20.90;48.10;;;;;;6241889;28;20124;-75
2021/05/02 11:56:51;;;;;;;2.17;1.30;;;20.90;47.90;;;;;;6242855;28;20095;-76
2021/05/02 11:59:52;;;;;;;3.42;1.35;;;21.00;48.00;;;;;;6242011;28;20017;-74
2021/05/02 12:02:52;;;;;;;3.17;1.40;;;21.00;47.90;;;;;;6243379;28;20048;-76
2021/05/02 12:05:58;;;;;;;5.10;1.30;;;21.00;47.90;;;;;;6245835;28;21022;-76
2021/05/02 12:09:00;;;;;;;7.97;1.50;;;21.00;48.20;;;;;;6245399;28;20029;-76
2021/05/02 12:12:02;;;;;;;2.97;1.20;;;21.00;48.30;;;;;;6248098;28;20030;-76
2021/05/02 12:15:03;;;;;;;3.78;1.42;;;21.00;48.20;;;;;;6245468;28;20423;-75
2021/05/02 12:18:04;;;;;;;6.47;1.27;;;21.00;48.20;;;;;;6245853;28;20111;-76
2021/05/02 12:21:22;;;;;;;4.10;1.42;;;21.00;48.20;;;;;;6246519;28;20075;-76
2021/05/02 12:24:28;;;;;;;3.45;1.27;;;21.00;48.20;;;;;;6247766;28;20030;-76
2021/05/02 12:27:28;;;;;;;;;;;21.00;48.20;;;;;;6244272;28;20025;-76
2021/05/02 12:30:29;;;;;;;2.55;1.33;;;21.00;48.20;;;;;;6244492;28;19912;-76
2021/05/02 12:33:31;;;;;;;3.05;1.48;;;21.00;48.20;;;;;;6243129;28;20095;-76
2021/05/02 12:36:32;;;;;;;1.85;1.13;;;21.00;48.20;;;;;;6245129;28;20500;-76
2021/05/02 12:39:34;;;;;;;2.83;1.08;;;21.00;48.20;;;;;;6243874;28;20025;-76
2021/05/02 12:42:36;;;;;;;2.30;1.20;;;21.00;48.20;;;;;;6245850;28;20030;-76
2021/05/02 12:45:43;;;;;;;2.60;1.23;;;21.00;48.20;;;;;;6245739;28;20495;-76
2021/05/02 12:48:46;;;;;;;1.65;1.25;;;21.00;48.20;;;;;;6244198;28;20224;-76
2021/05/02 12:51:50;;;;;;;1.50;1.02;;;21.00;48.20;;;;;;6245275;28;20116;-75
2021/05/02 12:54:51;;;;;;;2.00;1.30;;;21.00;48.20;;;;;;6248109;28;20042;-76
2021/05/02 12:57:57;;;;;;;3.10;1.33;;;21.00;48.20;;;;;;6247427;28;20376;-76
2021/05/02 13:01:00;;;;;;;1.92;1.13;;;21.00;48.90;;;;;;6247739;28;20124;-76
2021/05/02 13:04:01;;;;;;;2.20;1.48;;;21.00;48.20;;;;;;6245285;28;20132;-76
2021/05/02 13:07:02;;;;;;;1.80;1.25;;;21.00;48.20;;;;;;6246894;28;20488;-75
2021/05/02 13:10:07;;;;;;;3.05;1.20;;;21.00;48.20;;;;;;6248024;28;20029;-76
2021/05/02 13:13:08;;;;;;;1.65;1.13;;;21.00;48.20;;;;;;6249012;28;20476;-76
2021/05/02 13:16:08;;;;;;;1.83;1.23;;;21.00;48.20;;;;;;6243695;28;20123;-76
2021/05/02 13:19:25;;;;;;;2.20;1.23;;;21.00;48.20;;;;;;6257729;28;20088;-76
2021/05/02 13:22:28;;;;;;;2.05;1.15;;;21.00;48.20;;;;;;6246029;28;20408;-76
2021/05/02 13:25:28;;;;;;;9.23;1.27;;;21.00;48.20;;;;;;6247179;28;20025;-75
2021/05/02 13:28:29;;;;;;;5.43;1.10;;;21.10;48.20;;;;;;6257922;28;20450;-76
2021/05/02 13:31:55;;;;;;;2.00;1.23;;;21.10;48.10;;;;;;6246680;28;20033;-76
2021/05/02 13:34:56;;;;;;;1.38;1.08;;;21.10;48.00;;;;;;6246067;28;20136;-76
2021/05/02 13:37:57;;;;;;;2.28;1.20;;;21.10;48.00;;;;;;6248428;28;20028;-76
2021/05/02 13:40:58;;;;;;;3.55;1.23;;;21.10;48.00;;;;;;6245522;28;20353;-76
2021/05/02 13:44:04;;;;;;;2.30;1.17;;;21.20;48.10;;;;;;6248032;28;20017;-76
2021/05/02 13:47:05;;;;;;;1.20;0.98;;;21.20;48.10;;;;;;6245169;28;20057;-76
2021/05/02 13:50:07;;;;;;;1.63;1.10;;;21.20;48.20;;;;;;6249295;28;20017;-76
2021/05/02 13:53:07;;;;;;;1.02;0.90;;;21.20;48.10;;;;;;6244372;28;20029;-76
2021/05/02 13:56:08;;;;;;;1.33;1.05;;;21.20;48.20;;;;;;6249327;28;20033;-76
2021/05/02 13:59:08;;;;;;;1.58;1.20;;;21.20;48.20;;;;;;6264597;28;20383;-76
2021/05/02 14:02:09;;;;;;;0.98;0.80;;;21.20;48.20;;;;;;6256946;28;20041;-75
2021/05/02 14:05:11;;;;;;;5.00;1.00;;;21.20;48.20;;;;;;6250314;28;20033;-75
2021/05/02 14:08:11;;;;;;;2.45;1.42;;;21.20;48.20;;;;;;6247593;28;20468;-75
2021/05/02 14:11:12;;;;;;;7.00;1.05;;;21.20;48.30;;;;;;6249055;28;20026;-75
2021/05/02 14:14:13;;;;;;;4.68;1.00;;;21.20;48.30;;;;;;6249521;28;20053;-75
2021/05/02 14:17:13;;;;;;;4.70;1.30;;;21.20;48.30;;;;;;6248656;28;20037;-76
2021/05/02 14:20:14;;;;;;;4.20;1.10;;;21.10;48.20;;;;;;6250117;28;20516;-75
2021/05/02 14:23:14;;;;;;;10.40;1.38;;;21.10;48.20;;;;;;6250294;28;20025;-76
2021/05/02 14:26:15;;;;;;;9.40;1.20;;;21.10;48.20;;;;;;6247913;28;20155;-76
2021/05/02 14:29:16;;;;;;;7.80;1.20;;;21.10;48.30;;;;;;6250650;28;20354;-76
2021/05/02 14:32:16;;;;;;;11.75;1.35;;;21.10;48.30;;;;;;6246559;28;20351;-75
2021/05/02 14:35:17;;;;;;;4.97;1.25;;;21.10;48.30;;;;;;6248694;28;20100;-75
2021/05/02 14:38:18;;;;;;;6.43;1.33;;;21.10;48.30;;;;;;6248017;28;20491;-76
2021/05/02 14:41:19;;;;;;;5.40;1.10;;;21.20;48.40;;;;;;6247434;28;20048;-76
2021/05/02 14:44:19;;;;;;;11.75;1.45;;;21.10;48.30;;;;;;6247160;28;20342;-76
2021/05/02 14:47:20;;;;;;;7.70;1.45;;;21.10;48.30;;;;;;6248122;28;20502;-76
2021/05/02 14:50:21;;;;;;;10.48;1.20;;;21.10;48.30;;;;;;6249669;28;20082;-76
2021/05/02 14:53:21;;;;;;;9.77;1.27;;;21.10;48.30;;;;;;6246046;28;20025;-76
2021/05/02 14:56:22;;;;;;;11.88;1.40;;;21.10;48.30;;;;;;6245358;28;20387;-75
2021/05/02 14:59:22;;;;;;;16.42;1.80;;;21.10;48.40;;;;;;6248029;28;20032;-76
2021/05/02 15:02:23;;;;;;;11.57;1.63;;;21.10;48.40;;;;;;6246337;28;20439;-76
2021/05/02 15:05:24;;;;;;;16.23;1.70;;;21.10;48.50;;;;;;6247355;28;20045;-76
2021/05/02 15:08:24;;;;;;;12.10;1.65;;;21.10;48.50;;;;;;6246520;28;20021;-75
2021/05/02 15:11:25;;;;;;;9.27;1.45;;;21.10;48.50;;;;;;6249757;28;20021;-76
2021/05/02 15:14:25;;;;;;;7.10;1.65;;;21.10;48.50;;;;;;6249576;28;20032;-76
2021/05/02 15:17:26;;;;;;;7.22;1.52;;;21.10;48.50;;;;;;6249285;28;20029;-76
2021/05/02 15:20:27;;;;;;;15.35;2.00;;;21.20;48.50;;;;;;6245957;28;20029;-76
2021/05/02 15:23:28;;;;;;;10.70;1.23;;;21.20;48.50;;;;;;6245821;28;20034;-76
2021/05/02 15:26:28;;;;;;;17.77;2.03;;;21.20;48.50;;;;;;6247896;28;20049;-77
2021/05/02 15:29:29;;;;;;;7.75;1.77;;;21.10;48.40;;;;;;6248652;28;20625;-76
2021/05/02 15:32:29;;;;;;;12.52;1.65;;;21.10;48.30;;;;;;6242935;28;20022;-76
2021/05/02 15:35:30;;;;;;;6.68;1.60;;;21.10;48.50;;;;;;6243927;28;20061;-76
2021/05/02 15:38:30;;;;;;;14.40;1.42;;;21.10;48.50;;;;;;6242322;28;20476;-76
2021/05/02 15:41:32;;;;;;;17.85;1.83;;;21.20;48.50;;;;;;6248059;28;20072;-76
2021/05/02 15:44:33;;;;;;;26.05;2.50;;;21.10;48.50;;;;;;6247985;28;20060;-76
2021/05/02 15:47:33;;;;;;;22.88;1.77;;;21.10;48.50;;;;;;6248186;28;20071;-76
2021/05/02 15:50:34;;;;;;;17.13;1.73;;;21.20;48.50;;;;;;6248502;28;20116;-77
2021/05/02 15:53:34;;;;;;;23.63;2.40;;;21.20;48.50;;;;;;6247879;28;20028;-77
2021/05/02 15:56:35;;;;;;;24.70;2.60;;;21.20;48.60;;;;;;6247427;28;20036;-76